Time;durP1;ratioP1;P1;durP2;ratioP2;P2;SDS_P1;SDS_P2;PMS_P1;PMS_P2;Temp;Humidity;BMP_temperature;BMP_pressure;BME280_temperature;BME280_humidity;BME280_pressure;Samples;Min_cycle;Max_cycle;Signal;HPM_P1;HPM_P2
2022/06/12 00:00:30;;;;;;;5.53;3.85;;;;;;;;;;5053832;28;20360;-37
2022/06/12 00:02:56;;;;;;;4.55;3.42;;;;;;;;;;5072103;28;20013;-39
2022/06/12 00:05:23;;;;;;;4.25;3.55;;;;;;;;;;5071890;28;20024;-39
2022/06/12 00:07:48;;;;;;;4.57;3.67;;;;;;;;;;5053290;28;20024;-38
2022/06/12 00:10:14;;;;;;;5.32;3.70;;;;;;;;;;5071522;28;20016;-37
2022/06/12 00:12:41;;;;;;;4.45;3.47;;;;;;;;;;5085448;28;20028;-37
2022/06/12 00:15:07;;;;;;;8.23;3.60;;;;;;;;;;5073637;28;20161;-37
2022/06/12 00:17:32;;;;;;;5.68;3.60;;;;;;;;;;5073533;28;20487;-39
2022/06/12 00:19:57;;;;;;;4.13;3.72;;;;;;;;;;5091699;28;20020;-37
2022/06/12 00:22:23;;;;;;;5.55;4.10;;;;;;;;;;5091784;28;20020;-37
2022/06/12 00:24:48;;;;;;;4.07;3.67;;;;;;;;;;5073021;28;20533;-39
2022/06/12 00:27:14;;;;;;;4.30;3.90;;;;;;;;;;5092076;28;20026;-38
2022/06/12 00:29:39;;;;;;;4.82;3.47;;;;;;;;;;5091588;28;20394;-37
2022/06/12 00:32:06;;;;;;;4.95;4.07;;;;;;;;;;5091722;28;20536;-37
2022/06/12 00:34:37;;;;;;;5.78;4.35;;;;;;;;;;5073635;28;20467;-37
2022/06/12 00:37:02;;;;;;;5.53;4.43;;;;;;;;;;5091650;28;20028;-37
2022/06/12 00:39:28;;;;;;;4.38;3.95;;;;;;;;;;5073429;28;20030;-37
2022/06/12 00:41:55;;;;;;;7.28;4.38;;;;;;;;;;5091760;28;20016;-37
2022/06/12 00:44:24;;;;;;;6.18;4.32;;;;;;;;;;5091285;28;20091;-37
2022/06/12 00:46:49;;;;;;;6.20;3.97;;;;;;;;;;5091987;28;20024;-37
2022/06/12 00:49:33;;;;;;;6.88;4.57;;;;;;;;;;5073445;28;20043;-38
2022/06/12 00:52:02;;;;;;;6.95;4.50;;;;;;;;;;5073048;28;20032;-37
2022/06/12 00:54:28;;;;;;;4.88;4.43;;;;;;;;;;5091665;28;20470;-37
2022/06/12 00:56:55;;;;;;;5.15;4.10;;;;;;;;;;5091384;28;20028;-37
2022/06/12 00:59:40;;;;;;;4.80;4.32;;;;;;;;;;5091606;28;20083;-37
2022/06/12 01:02:08;;;;;;;6.20;5.22;;;;;;;;;;5072457;28;20508;-37
2022/06/12 01:07:20;;;;;;;7.50;5.13;;;;;;;;;;5091479;28;20030;-39
2022/06/12 01:09:47;;;;;;;6.57;5.25;;;;;;;;;;5073141;28;20023;-37
2022/06/12 01:12:14;;;;;;;5.45;4.82;;;;;;;;;;5081198;28;20108;-37
2022/06/12 01:14:42;;;;;;;5.47;4.95;;;;;;;;;;5052990;28;20025;-38
2022/06/12 01:17:08;;;;;;;10.10;4.97;;;;;;;;;;5052743;28;20021;-38
2022/06/12 01:19:35;;;;;;;7.05;5.10;;;;;;;;;;5053110;28;20031;-37
2022/06/12 01:22:04;;;;;;;5.82;5.10;;;;;;;;;;5053110;28;20016;-38
2022/06/12 01:24:48;;;;;;;7.63;5.75;;;;;;;;;;5071135;28;20119;-38
2022/06/12 01:27:26;;;;;;;13.55;5.55;;;;;;;;;;5053090;28;20033;-40
2022/06/12 01:30:11;;;;;;;7.93;5.97;;;;;;;;;;5053085;28;20101;-39
2022/06/12 01:32:43;;;;;;;5.75;5.07;;;;;;;;;;5070233;28;20044;-39
2022/06/12 01:35:18;;;;;;;6.88;5.80;;;;;;;;;;5070912;28;20107;-38
2022/06/12 01:37:44;;;;;;;7.05;5.57;;;;;;;;;;5056570;28;20412;-38
2022/06/12 01:40:18;;;;;;;6.32;5.65;;;;;;;;;;5056178;28;20490;-38
2022/06/12 01:42:47;;;;;;;7.10;5.18;;;;;;;;;;5056614;28;20035;-37
2022/06/12 01:45:28;;;;;;;8.40;5.63;;;;;;;;;;5074443;28;20020;-38
2022/06/12 01:48:01;;;;;;;8.38;6.18;;;;;;;;;;5074152;28;20103;-39
2022/06/12 01:50:39;;;;;;;8.65;5.85;;;;;;;;;;5074254;28;20151;-37
2022/06/12 01:53:23;;;;;;;10.38;5.78;;;;;;;;;;5074263;28;20047;-37
2022/06/12 01:55:48;;;;;;;10.27;5.88;;;;;;;;;;5074125;28;20020;-38
2022/06/12 01:58:22;;;;;;;6.95;6.13;;;;;;;;;;5074055;28;20095;-37
2022/06/12 02:00:50;;;;;;;9.13;6.72;;;;;;;;;;5056078;28;20163;-37
2022/06/12 02:03:31;;;;;;;8.20;5.90;;;;;;;;;;5056307;28;20070;-38
2022/06/12 02:06:02;;;;;;;9.52;6.30;;;;;;;;;;5073718;28;20032;-37
2022/06/12 02:08:27;;;;;;;11.52;6.20;;;;;;;;;;5073968;28;20021;-37
2022/06/12 02:10:56;;;;;;;9.48;5.78;;;;;;;;;;5073788;28;20154;-37
2022/06/12 02:13:31;;;;;;;8.60;6.65;;;;;;;;;;5074547;28;20028;-37
2022/06/12 02:16:00;;;;;;;8.50;6.53;;;;;;;;;;5094290;28;20020;-38
2022/06/12 02:18:43;;;;;;;7.60;6.20;;;;;;;;;;5093901;28;20052;-37
2022/06/12 02:21:29;;;;;;;9.35;6.07;;;;;;;;;;5093753;28;20040;-38
2022/06/12 02:24:08;;;;;;;8.18;5.85;;;;;;;;;;5074879;28;20185;-39
2022/06/12 02:26:40;;;;;;;6.72;5.88;;;;;;;;;;5093791;28;20028;-37
2022/06/12 02:29:21;;;;;;;8.23;6.40;;;;;;;;;;5093474;28;20020;-37
2022/06/12 02:31:48;;;;;;;12.80;7.05;;;;;;;;;;5093447;28;20036;-37
2022/06/12 02:34:16;;;;;;;16.63;6.68;;;;;;;;;;5093189;28;20020;-37
2022/06/12 02:36:45;;;;;;;9.25;5.85;;;;;;;;;;5093763;28;20364;-39
2022/06/12 02:39:25;;;;;;;10.65;6.82;;;;;;;;;;5075659;28;20024;-37
2022/06/12 02:41:53;;;;;;;8.90;6.70;;;;;;;;;;5075461;28;20020;-37
2022/06/12 02:44:23;;;;;;;10.73;7.03;;;;;;;;;;5075411;28;20039;-37
2022/06/12 02:46:54;;;;;;;7.35;6.45;;;;;;;;;;5093100;28;20110;-37
2022/06/12 02:49:19;;;;;;;8.68;6.68;;;;;;;;;;5093531;28;20032;-37
2022/06/12 02:52:03;;;;;;;7.68;6.85;;;;;;;;;;5093036;28;20139;-37
2022/06/12 02:54:28;;;;;;;7.93;6.43;;;;;;;;;;5093198;28;20440;-39
2022/06/12 02:57:15;;;;;;;8.27;7.00;;;;;;;;;;5093104;28;20048;-37
2022/06/12 02:59:43;;;;;;;9.32;5.85;;;;;;;;;;5093021;28;20519;-37
2022/06/12 03:02:27;;;;;;;7.65;6.78;;;;;;;;;;5093264;28;20020;-37
2022/06/12 03:05:02;;;;;;;7.38;6.15;;;;;;;;;;5074854;28;20138;-37
2022/06/12 03:07:28;;;;;;;6.68;5.75;;;;;;;;;;5093019;28;20031;-37
2022/06/12 03:09:54;;;;;;;11.70;6.20;;;;;;;;;;5074588;28;20020;-37
2022/06/12 03:12:19;;;;;;;7.65;6.07;;;;;;;;;;5080783;28;20039;-37
2022/06/12 03:14:45;;;;;;;9.50;6.90;;;;;;;;;;5055061;28;20036;-38
2022/06/12 03:17:10;;;;;;;6.57;5.60;;;;;;;;;;5054417;28;20070;-37
2022/06/12 03:19:42;;;;;;;9.13;6.30;;;;;;;;;;5072304;28;20697;-37
2022/06/12 03:22:26;;;;;;;9.65;6.40;;;;;;;;;;5054767;28;20428;-37
2022/06/12 03:24:54;;;;;;;7.38;5.97;;;;;;;;;;5054156;28;20124;-37
2022/06/12 03:27:46;;;;;;;9.30;6.68;;;;;;;;;;5054398;28;20021;-38
2022/06/12 03:30:22;;;;;;;7.22;6.45;;;;;;;;;;5033706;28;20040;-37
2022/06/12 03:33:01;;;;;;;6.80;6.10;;;;;;;;;;5053734;28;20039;-37
2022/06/12 03:35:26;;;;;;;7.72;6.28;;;;;;;;;;5072311;28;20029;-37
2022/06/12 03:38:10;;;;;;;7.28;5.53;;;;;;;;;;5072222;28;20032;-39
2022/06/12 03:40:48;;;;;;;7.60;6.63;;;;;;;;;;5072265;28;20021;-37
2022/06/12 03:43:16;;;;;;;9.32;5.40;;;;;;;;;;5072029;28;20024;-37
2022/06/12 03:46:00;;;;;;;8.10;5.80;;;;;;;;;;5054263;28;20032;-37
2022/06/12 03:48:33;;;;;;;10.93;6.35;;;;;;;;;;5072003;28;20032;-37
2022/06/12 03:51:09;;;;;;;9.63;6.03;;;;;;;;;;5054225;28;20089;-37
2022/06/12 03:53:35;;;;;;;6.72;5.22;;;;;;;;;;5053278;28;20029;-40
2022/06/12 03:58:50;;;;;;;11.13;5.35;;;;;;;;;;5071891;28;20031;-37
2022/06/12 04:01:15;;;;;;;6.35;5.07;;;;;;;;;;5071760;28;20028;-39
2022/06/12 04:03:42;;;;;;;5.22;4.35;;;;;;;;;;5071848;28;20422;-37
2022/06/12 04:06:15;;;;;;;4.90;4.28;;;;;;;;;;5053657;28;20026;-40
2022/06/12 04:08:43;;;;;;;8.48;4.65;;;;;;;;;;5053740;28;20035;-37
2022/06/12 04:11:10;;;;;;;7.15;4.68;;;;;;;;;;5072755;28;20025;-38
2022/06/12 04:13:37;;;;;;;6.53;4.82;;;;;;;;;;5091880;28;20390;-37
2022/06/12 04:16:12;;;;;;;4.57;4.13;;;;;;;;;;5073835;28;20119;-37
2022/06/12 04:18:38;;;;;;;7.25;3.97;;;;;;;;;;5073734;28;20051;-38
2022/06/12 04:21:16;;;;;;;5.93;4.80;;;;;;;;;;5073829;28;20024;-37
2022/06/12 04:23:41;;;;;;;7.13;4.15;;;;;;;;;;5091918;28;20051;-37
2022/06/12 04:26:12;;;;;;;5.60;4.10;;;;;;;;;;5073743;28;20565;-38
2022/06/12 04:28:40;;;;;;;3.97;3.58;;;;;;;;;;5091686;28;20032;-38
2022/06/12 04:31:09;;;;;;;3.70;3.40;;;;;;;;;;5091697;28;20471;-37
2022/06/12 04:33:54;;;;;;;11.57;3.70;;;;;;;;;;5073412;28;20493;-37
2022/06/12 04:36:20;;;;;;;3.67;3.28;;;;;;;;;;5073901;28;20390;-37
2022/06/12 04:38:45;;;;;;;4.90;3.03;;;;;;;;;;5091681;28;20020;-37
2022/06/12 04:41:15;;;;;;;3.78;3.08;;;;;;;;;;5073385;28;20379;-38
2022/06/12 04:43:40;;;;;;;3.17;2.95;;;;;;;;;;5091885;28;20016;-37
2022/06/12 04:46:05;;;;;;;3.45;3.10;;;;;;;;;;5091398;28;20074;-37
2022/06/12 04:48:36;;;;;;;4.80;3.70;;;;;;;;;;5091557;28;20038;-38
2022/06/12 04:51:02;;;;;;;4.50;3.00;;;;;;;;;;5073749;28;20058;-37
2022/06/12 04:53:27;;;;;;;5.15;3.08;;;;;;;;;;5091701;28;20447;-38
2022/06/12 04:55:53;;;;;;;4.70;2.80;;;;;;;;;;5091831;28;20028;-37
2022/06/12 04:58:19;;;;;;;7.25;3.13;;;;;;;;;;5091537;28;20455;-37
2022/06/12 05:00:45;;;;;;;4.18;3.20;;;;;;;;;;5091495;28;20008;-37
2022/06/12 05:03:12;;;;;;;3.90;2.90;;;;;;;;;;5091774;28;20105;-41
2022/06/12 05:05:37;;;;;;;7.43;4.05;;;;;;;;;;5073438;28;20489;-41
2022/06/12 05:08:03;;;;;;;3.35;2.50;;;;;;;;;;5073367;28;20020;-37
2022/06/12 05:10:28;;;;;;;8.00;3.38;;;;;;;;;;5074218;28;20040;-39
2022/06/12 05:12:54;;;;;;;6.82;2.83;;;;;;;;;;5079217;28;20055;-39
2022/06/12 05:15:19;;;;;;;8.02;3.17;;;;;;;;;;5056668;28;20028;-41
2022/06/12 05:17:46;;;;;;;5.05;2.70;;;;;;;;;;5047516;28;20492;-37
2022/06/12 05:20:17;;;;;;;2.90;2.60;;;;;;;;;;5034999;28;20017;-37
2022/06/12 05:22:42;;;;;;;5.93;2.75;;;;;;;;;;5033766;28;20029;-39
2022/06/12 05:25:08;;;;;;;5.00;2.38;;;;;;;;;;5035037;28;20369;-39
2022/06/12 05:27:34;;;;;;;3.80;2.47;;;;;;;;;;5034980;28;20104;-37
2022/06/12 05:29:59;;;;;;;6.13;2.70;;;;;;;;;;5049854;28;20025;-38
2022/06/12 05:32:25;;;;;;;7.40;2.80;;;;;;;;;;5033333;28;20033;-38
2022/06/12 05:34:51;;;;;;;3.22;2.63;;;;;;;;;;5034990;28;20446;-38
2022/06/12 05:37:17;;;;;;;2.63;2.35;;;;;;;;;;5033261;28;20409;-37
2022/06/12 05:39:42;;;;;;;5.50;2.67;;;;;;;;;;5034640;28;20056;-38
2022/06/12 05:42:08;;;;;;;5.50;2.28;;;;;;;;;;5033340;28;20117;-42
2022/06/12 05:44:33;;;;;;;2.90;2.10;;;;;;;;;;5034542;28;20029;-38
2022/06/12 05:46:59;;;;;;;4.97;2.13;;;;;;;;;;5033161;28;20033;-38
2022/06/12 05:49:25;;;;;;;3.28;2.22;;;;;;;;;;5033321;28;20527;-38
2022/06/12 05:51:50;;;;;;;4.72;2.20;;;;;;;;;;5034075;28;20052;-38
2022/06/12 05:54:16;;;;;;;3.75;2.20;;;;;;;;;;5049709;28;20159;-37
2022/06/12 05:56:42;;;;;;;3.33;2.00;;;;;;;;;;5034398;28;20086;-37
2022/06/12 05:59:07;;;;;;;2.10;1.90;;;;;;;;;;5033752;28;20108;-38
2022/06/12 06:01:33;;;;;;;4.50;1.92;;;;;;;;;;5033065;28;20017;-38
2022/06/12 06:03:58;;;;;;;3.33;2.15;;;;;;;;;;5034285;28;20040;-39
2022/06/12 06:06:30;;;;;;;2.50;2.05;;;;;;;;;;5032997;28;20029;-38
2022/06/12 06:08:56;;;;;;;4.25;2.35;;;;;;;;;;5033979;28;20365;-37
2022/06/12 06:11:21;;;;;;;2.75;1.85;;;;;;;;;;5036631;28;20524;-37
2022/06/12 06:13:46;;;;;;;3.10;1.80;;;;;;;;;;5052499;28;20120;-38
2022/06/12 06:16:12;;;;;;;2.13;1.50;;;;;;;;;;5053769;28;20021;-38
2022/06/12 06:18:39;;;;;;;2.10;1.70;;;;;;;;;;5052665;28;20053;-38
2022/06/12 06:21:05;;;;;;;3.85;1.70;;;;;;;;;;5053197;28;20024;-38
2022/06/12 06:23:30;;;;;;;3.72;1.83;;;;;;;;;;5054044;28;20021;-38
2022/06/12 06:25:56;;;;;;;2.07;1.87;;;;;;;;;;5053654;28;20514;-38
2022/06/12 06:28:21;;;;;;;5.00;1.90;;;;;;;;;;5053761;28;20246;-40
2022/06/12 06:30:46;;;;;;;3.22;1.75;;;;;;;;;;5053797;28;20246;-37
2022/06/12 06:33:12;;;;;;;1.92;1.42;;;;;;;;;;5053797;28;20033;-41
2022/06/12 06:35:38;;;;;;;3.40;1.83;;;;;;;;;;5053621;28;20021;-39
2022/06/12 06:38:03;;;;;;;1.98;1.77;;;;;;;;;;5052050;28;20440;-38
2022/06/12 06:40:30;;;;;;;3.45;1.40;;;;;;;;;;5053518;28;20108;-38
2022/06/12 06:42:55;;;;;;;4.40;1.77;;;;;;;;;;5053168;28;20017;-38
2022/06/12 06:48:05;;;;;;;2.63;1.48;;;;;;;;;;5053478;28;20052;-38
2022/06/12 06:50:31;;;;;;;3.50;1.70;;;;;;;;;;5051678;28;20613;-38
2022/06/12 06:52:56;;;;;;;3.30;2.03;;;;;;;;;;5051953;28;20060;-38
2022/06/12 06:55:22;;;;;;;3.40;1.30;;;;;;;;;;5051908;28;20029;-40
2022/06/12 06:57:49;;;;;;;1.67;1.50;;;;;;;;;;5052945;28;20060;-38
2022/06/12 07:00:16;;;;;;;2.22;1.42;;;;;;;;;;5052967;28;20028;-38
2022/06/12 07:02:42;;;;;;;1.88;1.50;;;;;;;;;;5053292;28;20020;-38
2022/06/12 07:05:08;;;;;;;6.22;1.60;;;;;;;;;;5053274;28;20017;-39
2022/06/12 07:07:34;;;;;;;1.58;1.42;;;;;;;;;;5052802;28;20391;-39
2022/06/12 07:10:00;;;;;;;4.40;1.55;;;;;;;;;;5051567;28;20032;-38
2022/06/12 07:12:25;;;;;;;4.53;1.33;;;;;;;;;;5051152;28;20029;-38
2022/06/12 07:14:51;;;;;;;2.53;1.60;;;;;;;;;;5052661;28;20026;-38
2022/06/12 07:17:16;;;;;;;2.60;1.58;;;;;;;;;;5055157;28;20761;-40
2022/06/12 07:19:42;;;;;;;2.45;1.50;;;;;;;;;;5092713;28;20020;-38
2022/06/12 07:22:07;;;;;;;2.80;1.50;;;;;;;;;;5092950;28;20103;-39
2022/06/12 07:24:32;;;;;;;4.32;1.80;;;;;;;;;;5092742;28;20463;-39
2022/06/12 07:26:58;;;;;;;2.50;1.50;;;;;;;;;;5073944;28;20106;-40
2022/06/12 07:29:23;;;;;;;3.70;1.70;;;;;;;;;;5092290;28;20028;-38
2022/06/12 07:31:49;;;;;;;1.83;1.40;;;;;;;;;;5092793;28;20036;-39
2022/06/12 07:34:15;;;;;;;3.33;1.40;;;;;;;;;;5073583;28;20027;-39
2022/06/12 07:36:41;;;;;;;2.25;1.48;;;;;;;;;;5092565;28;20020;-40
2022/06/12 07:39:08;;;;;;;3.08;1.42;;;;;;;;;;5092315;28;20421;-38
2022/06/12 07:41:34;;;;;;;2.92;1.75;;;;;;;;;;5092139;28;20081;-39
2022/06/12 07:43:59;;;;;;;1.63;1.33;;;;;;;;;;5074140;28;20020;-38
2022/06/12 07:46:25;;;;;;;1.65;1.48;;;;;;;;;;5074070;28;20463;-38
2022/06/12 07:48:50;;;;;;;1.25;1.15;;;;;;;;;;5092337;28;20043;-38
2022/06/12 07:51:18;;;;;;;2.05;1.50;;;;;;;;;;5092340;28;20020;-41
2022/06/12 07:53:44;;;;;;;4.43;1.55;;;;;;;;;;5092216;28;20082;-40
2022/06/12 07:56:10;;;;;;;2.95;1.50;;;;;;;;;;5073834;28;20016;-38
2022/06/12 07:58:35;;;;;;;3.65;1.40;;;;;;;;;;5074069;28;20031;-38
2022/06/12 08:01:03;;;;;;;3.40;1.33;;;;;;;;;;5092169;28;20099;-38
2022/06/12 08:03:29;;;;;;;1.50;1.40;;;;;;;;;;5092451;28;20060;-38
2022/06/12 08:05:54;;;;;;;5.07;1.42;;;;;;;;;;5092261;28;20027;-38
2022/06/12 08:08:20;;;;;;;1.55;1.27;;;;;;;;;;5091872;28;20024;-38
2022/06/12 08:10:45;;;;;;;2.65;1.52;;;;;;;;;;5091829;28;20047;-40
2022/06/12 08:13:11;;;;;;;3.55;1.73;;;;;;;;;;5073570;28;20521;-38
2022/06/12 08:15:37;;;;;;;5.03;2.22;;;;;;;;;;5092201;28;20016;-38
2022/06/12 08:18:04;;;;;;;2.30;1.70;;;;;;;;;;5092014;28;20055;-38
2022/06/12 08:20:30;;;;;;;2.75;1.60;;;;;;;;;;5091972;28;20043;-38
2022/06/12 08:22:58;;;;;;;2.03;1.60;;;;;;;;;;5091892;28;20363;-37
2022/06/12 08:25:24;;;;;;;1.98;1.40;;;;;;;;;;5073789;28;20137;-41
2022/06/12 08:27:50;;;;;;;3.58;1.40;;;;;;;;;;5091748;28;20491;-40
2022/06/12 08:30:15;;;;;;;3.50;1.67;;;;;;;;;;5091492;28;20016;-38
2022/06/12 08:32:42;;;;;;;3.47;1.42;;;;;;;;;;5091668;28;20073;-38
2022/06/12 08:35:20;;;;;;;1.50;1.38;;;;;;;;;;5073650;28;20467;-39
2022/06/12 08:37:45;;;;;;;4.28;1.60;;;;;;;;;;5073444;28;20420;-38
2022/06/12 08:40:20;;;;;;;3.55;1.58;;;;;;;;;;5090393;28;20070;-38
2022/06/12 08:42:56;;;;;;;2.15;1.50;;;;;;;;;;5091741;28;20056;-38
2022/06/12 08:45:24;;;;;;;1.60;1.42;;;;;;;;;;5075800;28;20422;-40
2022/06/12 08:47:58;;;;;;;2.90;1.23;;;;;;;;;;5077665;28;20107;-39
2022/06/12 08:50:27;;;;;;;8.35;1.60;;;;;;;;;;5095601;28;20097;-39
2022/06/12 08:52:52;;;;;;;;;;;;;;;;;;5095982;28;20036;-38
2022/06/12 08:55:20;;;;;;;1.60;1.20;;;;;;;;;;5077715;28;19910;-38
2022/06/12 08:57:57;;;;;;;3.83;1.27;;;;;;;;;;5095299;28;20028;-39
2022/06/12 09:00:25;;;;;;;1.90;1.33;;;;;;;;;;5077393;28;20075;-38
2022/06/12 09:02:51;;;;;;;3.17;1.33;;;;;;;;;;5095759;28;20024;-39
2022/06/12 09:05:21;;;;;;;2.83;1.40;;;;;;;;;;5095692;28;20016;-37
2022/06/12 09:07:47;;;;;;;2.20;1.35;;;;;;;;;;5095441;28;20019;-38
2022/06/12 09:10:33;;;;;;;3.10;1.50;;;;;;;;;;5095315;28;20024;-39
2022/06/12 09:13:25;;;;;;;7.68;1.60;;;;;;;;;;5078722;28;20447;-40
2022/06/12 09:16:09;;;;;;;3.63;1.25;;;;;;;;;;5052256;28;20033;-38
2022/06/12 09:18:41;;;;;;;3.20;1.15;;;;;;;;;;5040751;28;20089;-38
2022/06/12 09:21:12;;;;;;;2.75;1.33;;;;;;;;;;5034887;28;20044;-38
2022/06/12 09:23:47;;;;;;;4.60;1.60;;;;;;;;;;5034925;28;20022;-40
2022/06/12 09:26:17;;;;;;;2.25;1.45;;;;;;;;;;5034717;28;20026;-39
2022/06/12 09:28:49;;;;;;;2.30;1.35;;;;;;;;;;5050444;28;20021;-38
2022/06/12 09:31:27;;;;;;;1.80;1.52;;;;;;;;;;5033684;28;20045;-38
2022/06/12 09:33:58;;;;;;;2.63;1.38;;;;;;;;;;5033380;28;20091;-41
2022/06/12 09:36:32;;;;;;;1.88;1.40;;;;;;;;;;5049811;28;20339;-41
2022/06/12 09:39:14;;;;;;;1.63;1.45;;;;;;;;;;5035007;28;20021;-39
2022/06/12 09:41:48;;;;;;;2.75;1.48;;;;;;;;;;5034470;28;20024;-39
2022/06/12 09:44:13;;;;;;;3.88;1.45;;;;;;;;;;5033246;28;20150;-39
2022/06/12 09:46:45;;;;;;;2.05;1.40;;;;;;;;;;5034507;28;20104;-38
2022/06/12 09:49:16;;;;;;;5.28;1.38;;;;;;;;;;5034329;28;20353;-39
2022/06/12 09:51:51;;;;;;;2.42;1.42;;;;;;;;;;5034647;28;20021;-38
2022/06/12 09:54:35;;;;;;;2.70;1.35;;;;;;;;;;5034165;28;20400;-38
2022/06/12 09:57:20;;;;;;;3.70;1.45;;;;;;;;;;5032293;28;20486;-39
2022/06/12 09:59:48;;;;;;;1.63;1.10;;;;;;;;;;5032854;28;20566;-38
2022/06/12 10:02:19;;;;;;;2.95;1.48;;;;;;;;;;5048375;28;20040;-38
2022/06/12 10:04:56;;;;;;;1.52;1.10;;;;;;;;;;5034456;28;20033;-38
2022/06/12 10:07:28;;;;;;;3.80;1.40;;;;;;;;;;5033047;28;20028;-37
2022/06/12 10:09:59;;;;;;;1.58;1.48;;;;;;;;;;5033957;28;20048;-42
2022/06/12 10:12:26;;;;;;;2.20;1.40;;;;;;;;;;5045253;28;20078;-38
2022/06/12 10:15:00;;;;;;;3.07;1.73;;;;;;;;;;5053944;28;20032;-38
2022/06/12 10:17:32;;;;;;;4.32;1.42;;;;;;;;;;5056228;28;20025;-38
2022/06/12 10:20:18;;;;;;;3.58;1.30;;;;;;;;;;5094300;28;20024;-38
2022/06/12 10:22:45;;;;;;;2.75;1.30;;;;;;;;;;5074713;28;20034;-41
2022/06/12 10:25:34;;;;;;;2.80;1.10;;;;;;;;;;5093963;28;20023;-38
2022/06/12 10:28:04;;;;;;;4.28;1.60;;;;;;;;;;5093608;28;20028;-38
2022/06/12 10:30:30;;;;;;;3.08;1.48;;;;;;;;;;5093855;28;20035;-38
2022/06/12 10:33:07;;;;;;;6.38;1.50;;;;;;;;;;5093259;28;20028;-39
2022/06/12 10:35:33;;;;;;;3.17;1.40;;;;;;;;;;5093982;28;20437;-38
2022/06/12 10:38:06;;;;;;;3.95;1.48;;;;;;;;;;5093535;28;20024;-39
2022/06/12 10:40:31;;;;;;;2.65;1.40;;;;;;;;;;5093955;28;20085;-38
2022/06/12 10:43:06;;;;;;;4.30;1.65;;;;;;;;;;5094047;28;20459;-37
2022/06/12 10:45:33;;;;;;;2.15;1.20;;;;;;;;;;5074680;28;20020;-40
2022/06/12 10:48:00;;;;;;;2.10;1.60;;;;;;;;;;5075606;28;20021;-37
2022/06/12 10:50:29;;;;;;;5.35;1.85;;;;;;;;;;5093470;28;20136;-43
2022/06/12 10:53:09;;;;;;;2.97;1.38;;;;;;;;;;5074830;28;20039;-38
2022/06/12 10:55:53;;;;;;;2.38;1.40;;;;;;;;;;5093145;28;20050;-37
2022/06/12 10:58:19;;;;;;;2.60;1.45;;;;;;;;;;5092964;28;20027;-37
2022/06/12 11:00:46;;;;;;;1.67;1.30;;;;;;;;;;5074985;28;20020;-38
2022/06/12 11:03:14;;;;;;;1.80;1.50;;;;;;;;;;5075062;28;20107;-37
2022/06/12 11:05:53;;;;;;;3.95;1.60;;;;;;;;;;5093265;28;20016;-38
2022/06/12 11:08:45;;;;;;;5.43;1.58;;;;;;;;;;5093125;28;20028;-37
2022/06/12 11:11:19;;;;;;;2.78;1.42;;;;;;;;;;5086408;28;20085;-37
2022/06/12 11:14:09;;;;;;;2.58;1.30;;;;;;;;;;5072874;28;20043;-37
2022/06/12 11:16:53;;;;;;;2.17;1.30;;;;;;;;;;5072564;28;20107;-37
2022/06/12 11:19:34;;;;;;;4.10;1.38;;;;;;;;;;5054370;28;20098;-37
2022/06/12 11:22:29;;;;;;;2.50;1.20;;;;;;;;;;5072491;28;20414;-37
2022/06/12 11:25:14;;;;;;;3.60;1.48;;;;;;;;;;5050318;28;20039;-37
2022/06/12 11:28:00;;;;;;;1.42;1.20;;;;;;;;;;5055045;28;20115;-37
2022/06/12 11:30:28;;;;;;;2.38;1.35;;;;;;;;;;5072560;28;20475;-38
2022/06/12 11:33:15;;;;;;;3.33;1.65;;;;;;;;;;5072202;28;20028;-38
2022/06/12 11:36:04;;;;;;;4.95;1.30;;;;;;;;;;5054166;28;20028;-39
2022/06/12 11:38:35;;;;;;;4.15;1.67;;;;;;;;;;5025163;28;20024;-37
2022/06/12 11:41:04;;;;;;;2.00;1.40;;;;;;;;;;5071871;28;20486;-38
2022/06/12 11:43:30;;;;;;;1.73;1.20;;;;;;;;;;5072678;28;20099;-39
2022/06/12 11:46:05;;;;;;;3.00;1.48;;;;;;;;;;5072363;28;20143;-38
2022/06/12 11:48:30;;;;;;;2.53;1.30;;;;;;;;;;5072174;28;20027;-37
2022/06/12 11:51:04;;;;;;;3.67;1.80;;;;;;;;;;5071755;28;20024;-38
2022/06/12 11:53:30;;;;;;;3.33;1.60;;;;;;;;;;5054111;28;20828;-37
2022/06/12 11:56:14;;;;;;;3.65;1.65;;;;;;;;;;5053916;28;20406;-37
2022/06/12 11:58:42;;;;;;;2.90;1.85;;;;;;;;;;5071758;28;20031;-37
2022/06/12 12:01:10;;;;;;;2.70;1.50;;;;;;;;;;5072127;28;20024;-39
2022/06/12 12:03:44;;;;;;;3.40;1.48;;;;;;;;;;5071949;28;20028;-37
2022/06/12 12:06:18;;;;;;;3.42;1.55;;;;;;;;;;5053927;28;20423;-39
2022/06/12 12:08:58;;;;;;;2.92;1.50;;;;;;;;;;5072105;28;20021;-37
2022/06/12 12:11:40;;;;;;;3.17;1.42;;;;;;;;;;5074499;28;20537;-38
2022/06/12 12:14:05;;;;;;;4.78;1.60;;;;;;;;;;5092333;28;20035;-38
2022/06/12 12:16:40;;;;;;;5.43;1.45;;;;;;;;;;5073826;28;20031;-38
2022/06/12 12:19:11;;;;;;;5.55;1.25;;;;;;;;;;5091194;28;20048;-39
2022/06/12 12:22:03;;;;;;;1.50;1.40;;;;;;;;;;5091539;28;20028;-38
2022/06/12 12:24:33;;;;;;;3.33;1.50;;;;;;;;;;5035756;28;20035;-38
2022/06/12 12:27:01;;;;;;;1.90;1.50;;;;;;;;;;5091909;28;20048;-37
2022/06/12 12:29:30;;;;;;;2.27;1.43;;;;;;;;;;5091738;28;20467;-38
2022/06/12 12:31:55;;;;;;;;;;;;;;;;;;5092237;28;20077;-37
2022/06/12 12:34:22;;;;;;;2.30;1.60;;;;;;;;;;5091588;28;19903;-38
2022/06/12 12:42:29;;;;;;;4.95;2.00;;;;;;;;;;5091941;28;20078;-39
2022/06/12 12:44:55;;;;;;;2.72;1.42;;;;;;;;;;5091132;28;20131;-41
2022/06/12 12:47:21;;;;;;;4.90;1.75;;;;;;;;;;5091688;28;20024;-38
2022/06/12 12:49:47;;;;;;;2.15;1.65;;;;;;;;;;5091585;28;20485;-38
2022/06/12 12:52:19;;;;;;;1.60;1.50;;;;;;;;;;5091835;28;20032;-37
2022/06/12 12:54:45;;;;;;;3.78;1.70;;;;;;;;;;5073509;28;20435;-41
2022/06/12 12:57:11;;;;;;;2.77;1.43;;;;;;;;;;5091616;28;20103;-39
2022/06/12 12:59:44;;;;;;;1.58;1.42;;;;;;;;;;5073521;28;20024;-37
2022/06/12 13:02:29;;;;;;;5.55;3.83;;;;;;;;;;5073490;28;20086;-38
2022/06/12 13:04:57;;;;;;;4.07;1.95;;;;;;;;;;5090425;28;20393;-38
2022/06/12 13:07:25;;;;;;;3.70;2.30;;;;;;;;;;5091256;28;20028;-38
2022/06/12 13:10:00;;;;;;;6.82;1.92;;;;;;;;;;5073053;28;20038;-39
2022/06/12 13:12:29;;;;;;;1.75;1.30;;;;;;;;;;5081314;28;20077;-38
2022/06/12 13:14:57;;;;;;;1.92;1.42;;;;;;;;;;5091449;28;20107;-38
2022/06/12 13:17:38;;;;;;;2.38;1.73;;;;;;;;;;5091103;28;20030;-38
2022/06/12 13:20:09;;;;;;;2.10;1.60;;;;;;;;;;5073017;28;20025;-38
2022/06/12 13:22:42;;;;;;;1.90;1.63;;;;;;;;;;5089723;28;20028;-38
2022/06/12 13:25:30;;;;;;;4.35;1.58;;;;;;;;;;5091479;28;20020;-38
2022/06/12 13:27:57;;;;;;;2.28;1.90;;;;;;;;;;5073110;28;20028;-37
2022/06/12 13:30:33;;;;;;;4.10;1.90;;;;;;;;;;5073147;28;20024;-38
2022/06/12 13:33:09;;;;;;;6.78;2.45;;;;;;;;;;5075640;28;20390;-41
2022/06/12 13:35:44;;;;;;;3.92;1.80;;;;;;;;;;5095224;28;20023;-38
2022/06/12 13:38:18;;;;;;;2.50;1.70;;;;;;;;;;5094660;28;20459;-37
2022/06/12 13:40:51;;;;;;;2.70;1.80;;;;;;;;;;5094804;28;20020;-38
2022/06/12 13:43:27;;;;;;;2.45;1.83;;;;;;;;;;5076230;28;20107;-38
2022/06/12 13:45:56;;;;;;;3.28;1.85;;;;;;;;;;5094835;28;20074;-40
2022/06/12 13:48:26;;;;;;;7.15;2.25;;;;;;;;;;5076402;28;20016;-38
2022/06/12 13:50:55;;;;;;;3.45;2.08;;;;;;;;;;5094644;28;20020;-38
2022/06/12 13:53:21;;;;;;;2.97;2.03;;;;;;;;;;5094450;28;20067;-39
2022/06/12 13:55:51;;;;;;;4.15;1.80;;;;;;;;;;5094461;28;20051;-38
2022/06/12 13:58:19;;;;;;;4.78;1.70;;;;;;;;;;5094652;28;20024;-37
2022/06/12 14:00:46;;;;;;;2.33;1.80;;;;;;;;;;5076061;28;20356;-38
2022/06/12 14:03:34;;;;;;;2.30;1.98;;;;;;;;;;5094551;28;20027;-38
2022/06/12 14:06:04;;;;;;;2.92;1.60;;;;;;;;;;5076136;28;20471;-38
2022/06/12 14:08:32;;;;;;;3.55;2.10;;;;;;;;;;5094277;28;20026;-37
2022/06/12 14:10:58;;;;;;;3.13;1.90;;;;;;;;;;5075814;28;20020;-38
2022/06/12 14:13:23;;;;;;;7.10;1.85;;;;;;;;;;5093914;28;20123;-38
2022/06/12 14:15:48;;;;;;;3.83;1.83;;;;;;;;;;5075970;28;20012;-37
2022/06/12 14:18:25;;;;;;;2.15;1.88;;;;;;;;;;5094019;28;20276;-41
2022/06/12 14:21:03;;;;;;;2.13;1.85;;;;;;;;;;5075747;28;20115;-38
2022/06/12 14:23:31;;;;;;;3.15;1.70;;;;;;;;;;5076015;28;20085;-40
2022/06/12 14:26:03;;;;;;;3.63;2.03;;;;;;;;;;5075758;28;20031;-37
2022/06/12 14:28:34;;;;;;;3.70;1.85;;;;;;;;;;5075721;28;20020;-38
2022/06/12 14:31:05;;;;;;;2.60;1.92;;;;;;;;;;5093970;28;20027;-37
2022/06/12 14:33:33;;;;;;;3.50;2.42;;;;;;;;;;5093233;28;20032;-42
2022/06/12 14:36:03;;;;;;;1.92;1.73;;;;;;;;;;5093916;28;20107;-38
2022/06/12 14:38:30;;;;;;;4.53;1.85;;;;;;;;;;5093271;28;20379;-39
2022/06/12 14:40:56;;;;;;;5.93;1.80;;;;;;;;;;5075329;28;20016;-38
2022/06/12 14:43:24;;;;;;;4.47;1.73;;;;;;;;;;5075043;28;20031;-38
2022/06/12 14:45:51;;;;;;;3.60;1.73;;;;;;;;;;5093667;28;20016;-38
2022/06/12 14:48:21;;;;;;;4.97;1.98;;;;;;;;;;5075229;28;20485;-37
2022/06/12 14:50:46;;;;;;;4.32;1.63;;;;;;;;;;5075273;28;20058;-38
2022/06/12 14:53:12;;;;;;;2.92;1.90;;;;;;;;;;5093254;28;20079;-38
2022/06/12 14:55:38;;;;;;;2.47;1.90;;;;;;;;;;5075255;28;20020;-39
2022/06/12 14:58:03;;;;;;;2.80;1.92;;;;;;;;;;5093160;28;20013;-38
2022/06/12 15:00:30;;;;;;;2.45;1.92;;;;;;;;;;5091913;28;20462;-39
2022/06/12 15:02:55;;;;;;;3.70;1.95;;;;;;;;;;5092762;28;20520;-37
2022/06/12 15:05:23;;;;;;;4.13;1.77;;;;;;;;;;5093256;28;20020;-38
2022/06/12 15:07:49;;;;;;;1.73;1.63;;;;;;;;;;5075126;28;20417;-38
2022/06/12 15:10:14;;;;;;;3.33;1.80;;;;;;;;;;5093133;28;20094;-37
2022/06/12 15:12:40;;;;;;;2.55;1.70;;;;;;;;;;5060940;28;20127;-39
2022/06/12 15:15:14;;;;;;;3.08;2.00;;;;;;;;;;5054678;28;20051;-38